This is the latest recevied weather packets stored in our database for station/object NK2J. If no packets are shown the sender has not sent any weather packets the latest 1 day(s).
| Time | Temp. | Humidity | Pressure | Rain* | Wind** | Luminosity | Snow |
|---|---|---|---|---|---|---|---|
| 1778005172 | 21.67° C | 46% | 1013.7 hPa | 0 mm | 1.34 m/s, 49° | 304 W/m² | - |
| 1778004870 | 21.11° C | 49% | 1013.5 hPa | 0 mm | 1.34 m/s, 235° | 204 W/m² | - |
| 1778004567 | 21.67° C | 49% | 1013.7 hPa | 0 mm | 1.79 m/s, 329° | 227 W/m² | - |
| 1778004263 | 21.67° C | 49% | 1013.8 hPa | 0 mm | 0 m/s | 900 W/m² | - |
| 1778003960 | 22.22° C | 48% | 1013.7 hPa | 0 mm | 1.34 m/s, 54° | 210 W/m² | - |
| 1778003656 | 22.22° C | 51% | 1013.5 hPa | 0 mm | 0.45 m/s, 6° | 794 W/m² | - |
| 1778003353 | 21.67° C | 51% | 1013.7 hPa | 0 mm | 0.45 m/s, 343° | 774 W/m² | - |
| 1778003050 | 20.56° C | 53% | 1013.7 hPa | 0 mm | 0.45 m/s, 335° | 206 W/m² | - |
| 1778002747 | 20.56° C | 53% | 1013.9 hPa | 0 mm | 0 m/s | 268 W/m² | - |
| 1778002443 | 21.11° C | 52% | 1014 hPa | 0 mm | 1.34 m/s, 30° | 220 W/m² | - |
| 1778002139 | 20.56° C | 55% | 1014 hPa | 0 mm | 1.34 m/s, 348° | 308 W/m² | - |
| 1778001838 | 20.56° C | 53% | 1013.9 hPa | 0 mm | 1.79 m/s, 1° | 261 W/m² | - |
| 1778001537 | 20.56° C | 54% | 1013.9 hPa | 0 mm | 1.34 m/s, 43° | 160 W/m² | - |
| 1778001234 | 20° C | 55% | 1013.9 hPa | 0 mm | 0.89 m/s, 50° | 206 W/m² | - |
| 1778000930 | 20.56° C | 54% | 1013.8 hPa | 0 mm | 1.79 m/s, 96° | 248 W/m² | - |
| 1778000628 | 20.56° C | 55% | 1013.8 hPa | 0 mm | 1.34 m/s, 9° | 210 W/m² | - |
| 1778000323 | 20.56° C | 55% | 1013.7 hPa | 0 mm | 0 m/s | 263 W/m² | - |
| 1778000018 | 20.56° C | 54% | 1013.6 hPa | 0 mm | 0.45 m/s, 60° | 197 W/m² | - |
| 1777999714 | 21.11° C | 53% | 1013.8 hPa | 0 mm | 0.45 m/s, 31° | 292 W/m² | - |
| 1777999406 | 20° C | 57% | 1013.9 hPa | 0 mm | 0.89 m/s, 27° | 749 W/m² | - |
| 1777999104 | 20° C | 60% | 1013.6 hPa | 0 mm | 1.34 m/s, 330° | 301 W/m² | - |
| 1777998802 | 20° C | 58% | 1013.6 hPa | 0 mm | 0.45 m/s, 51° | 165 W/m² | - |
| 1777998500 | 20° C | 58% | 1013.8 hPa | 0 mm | 1.34 m/s, 0° | 134 W/m² | - |
| 1777998196 | 20° C | 58% | 1013.8 hPa | 0 mm | 1.79 m/s, 332° | 126 W/m² | - |
| 1777997893 | 21.11° C | 55% | 1013.6 hPa | 0 mm | 0.45 m/s, 57° | 352 W/m² | - |
* Rain latest hour (hover to see other rain measurements)
** Current wind speed in m/s (hover to see current wind gust speed)